createdAt,value
2019-03-04T00:02:28.485Z,98994.78
2019-03-04T00:05:32.303Z,99005.73
2019-03-04T00:08:36.144Z,98999.73
2019-03-04T00:11:40.068Z,98992.48
2019-03-04T00:14:43.967Z,98986.03
2019-03-04T00:17:47.771Z,98969.95
2019-03-04T00:20:51.587Z,98996.08
2019-03-04T00:23:55.406Z,98982.13
2019-03-04T00:26:59.226Z,98986.38
2019-03-04T00:30:03.130Z,98970.20
2019-03-04T00:33:06.947Z,98974.34
2019-03-04T00:36:10.764Z,98977.03
2019-03-04T00:39:14.671Z,98974.09
2019-03-04T00:42:18.501Z,98980.77
2019-03-04T00:45:22.341Z,98977.69
2019-03-04T00:48:26.164Z,98956.83
2019-03-04T00:51:30.378Z,98972.73
2019-03-04T00:54:34.196Z,98958.53
2019-03-04T00:57:38.100Z,98967.19
2019-03-04T01:00:42.182Z,98956.69
2019-03-04T01:03:46.075Z,98959.63
2019-03-04T01:06:50.230Z,98955.37
2019-03-04T01:09:54.049Z,98952.47
2019-03-04T01:12:57.961Z,98943.52
2019-03-04T01:16:01.855Z,98940.79
2019-03-04T01:19:05.791Z,98920.09
2019-03-04T01:22:09.582Z,98939.70
2019-03-04T01:25:15.100Z,98932.41
2019-03-04T01:28:18.918Z,98904.57
2019-03-04T01:31:22.770Z,98905.72
2019-03-04T01:34:26.597Z,98904.57
2019-03-04T01:37:31.777Z,98902.38
2019-03-04T01:40:35.658Z,98902.30
2019-03-04T01:43:39.472Z,98893.20
2019-03-04T01:46:43.301Z,98888.48
2019-03-04T01:49:47.121Z,98892.72
2019-03-04T01:52:50.933Z,98880.37
2019-03-04T01:55:54.840Z,98864.93
2019-03-04T01:58:58.645Z,98853.97
2019-03-04T02:02:02.472Z,98832.81
2019-03-04T02:05:06.753Z,98827.50
2019-03-04T02:08:10.600Z,98827.67
2019-03-04T02:11:14.483Z,98830.07
2019-03-04T02:14:18.402Z,98822.38
2019-03-04T02:17:22.210Z,98812.05
2019-03-04T02:20:26.073Z,98806.82
2019-03-04T02:23:29.879Z,98808.77
2019-03-04T02:26:34.626Z,98811.55
2019-03-04T02:29:38.498Z,98815.27
2019-03-04T02:32:42.415Z,98805.27
2019-03-04T02:35:46.296Z,98783.72
2019-03-04T02:38:50.183Z,98764.91
2019-03-04T02:41:54.007Z,98766.08
2019-03-04T02:44:57.834Z,98749.31
2019-03-04T02:48:01.736Z,98735.61
2019-03-04T02:51:05.928Z,98729.83
2019-03-04T02:54:09.762Z,98716.30
2019-03-04T02:57:13.576Z,98711.88
2019-03-04T03:00:17.672Z,98704.77
2019-03-04T03:03:21.497Z,98705.14
2019-03-04T03:06:25.314Z,98702.87
2019-03-04T03:09:29.165Z,98707.06
2019-03-04T03:12:32.960Z,98699.64
2019-03-04T03:15:36.793Z,98684.13
2019-03-04T03:18:40.608Z,98677.77
2019-03-04T03:21:44.518Z,98675.79
2019-03-04T03:24:48.346Z,98664.44
2019-03-04T03:27:52.135Z,98655.05
2019-03-04T03:30:55.953Z,98655.91
2019-03-04T03:33:59.883Z,98651.34
2019-03-04T03:37:03.682Z,98638.20
2019-03-04T03:40:09.332Z,98638.95
2019-03-04T03:43:13.134Z,98601.55
2019-03-04T03:46:16.999Z,98606.06
2019-03-04T03:49:22.175Z,98590.73
2019-03-04T03:52:25.993Z,98587.20
2019-03-04T03:55:30.184Z,98590.09
2019-03-04T03:58:34.159Z,98591.47
2019-03-04T04:01:37.995Z,98583.98
2019-03-04T04:04:41.789Z,98574.64
2019-03-04T04:07:45.776Z,98568.84
2019-03-04T04:10:49.574Z,98568.84
2019-03-04T04:13:53.472Z,98565.21
2019-03-04T04:16:57.382Z,98558.29
2019-03-04T04:20:01.283Z,98551.96
2019-03-04T04:23:05.273Z,98543.04
2019-03-04T04:26:21.623Z,98543.42
2019-03-04T04:29:25.435Z,98525.28
2019-03-04T04:32:29.246Z,98510.15
2019-03-04T04:35:33.211Z,98506.17
2019-03-04T04:38:37.461Z,98502.36
2019-03-04T04:41:41.277Z,98491.87
2019-03-04T04:44:45.130Z,98493.48
2019-03-04T04:47:48.950Z,98484.03
2019-03-04T04:50:52.835Z,98468.86
2019-03-04T04:53:56.675Z,98457.81
2019-03-04T04:57:00.568Z,98445.95
2019-03-04T05:00:05.447Z,98429.88
2019-03-04T05:03:09.248Z,98427.43
2019-03-04T05:06:13.779Z,98406.98
2019-03-04T05:09:17.578Z,98404.31
2019-03-04T05:12:21.446Z,98401.11
2019-03-04T05:15:25.232Z,98399.04
2019-03-04T05:18:29.109Z,98381.73
2019-03-04T05:21:32.926Z,98360.45
2019-03-04T05:24:36.751Z,98345.13
2019-03-04T05:27:40.706Z,98343.69
2019-03-04T05:30:44.512Z,98335.08
2019-03-04T05:33:48.353Z,98321.86
2019-03-04T05:36:52.170Z,98312.97
2019-03-04T05:39:55.965Z,98307.18
2019-03-04T05:42:59.780Z,98286.40
2019-03-04T05:46:03.586Z,98270.59
2019-03-04T05:49:07.385Z,98256.40
2019-03-04T05:52:11.184Z,98237.81
2019-03-04T05:55:16.042Z,98225.95
2019-03-04T05:58:20.602Z,98218.78
2019-03-04T06:01:35.363Z,98225.78
2019-03-04T06:04:40.502Z,98205.70
2019-03-04T06:07:48.435Z,98197.97
2019-03-04T06:10:53.293Z,98182.40
2019-03-04T06:13:57.968Z,98172.17
2019-03-04T06:17:02.415Z,98162.91
2019-03-04T06:20:07.439Z,98153.33
2019-03-04T06:23:11.702Z,98145.80
2019-03-04T06:26:16.253Z,98144.50
2019-03-04T06:29:20.620Z,98147.50
2019-03-04T06:32:25.685Z,98130.27
2019-03-04T06:35:30.092Z,98130.83
2019-03-04T06:38:34.859Z,98122.60
2019-03-04T06:41:39.425Z,98114.66
2019-03-04T06:44:44.352Z,98108.34
2019-03-04T06:47:48.378Z,98096.41
2019-03-04T06:50:54.262Z,98090.80
2019-03-04T06:54:30.039Z,98094.25
2019-03-04T06:57:37.582Z,98089.90
2019-03-04T07:00:55.052Z,98079.98
2019-03-04T07:04:33.351Z,98084.01
2019-03-04T07:07:37.491Z,98069.61
2019-03-04T07:10:41.955Z,98059.70
2019-03-04T07:13:46.110Z,98056.87
2019-03-04T07:16:51.351Z,98053.91
2019-03-04T07:20:10.768Z,98053.31
2019-03-04T07:23:14.917Z,98035.72
2019-03-04T07:26:19.371Z,98023.88
2019-03-04T07:29:24.430Z,98014.42
2019-03-04T07:32:28.711Z,98017.58
2019-03-04T07:35:32.903Z,97995.41
2019-03-04T07:39:04.984Z,97976.70
2019-03-04T07:42:09.174Z,97978.77
2019-03-04T07:45:13.627Z,98010.88
2019-03-04T07:48:17.727Z,98011.99
2019-03-04T07:51:22.232Z,98059.71
2019-03-04T07:54:26.507Z,98001.64
2019-03-04T07:57:30.677Z,98009.25
2019-03-04T08:00:34.918Z,98004.22
2019-03-04T08:03:39.088Z,97994.60
2019-03-04T08:06:43.332Z,97983.65
2019-03-04T08:10:15.964Z,97978.81
2019-03-04T08:13:29.927Z,97973.45
2019-03-04T08:16:36.084Z,97951.52
2019-03-04T08:19:39.733Z,97914.23
2019-03-04T08:22:43.839Z,97929.27
2019-03-04T08:25:48.101Z,97936.33
2019-03-04T08:28:52.353Z,98012.89
2019-03-04T08:31:56.334Z,98018.63
2019-03-04T08:35:00.443Z,98010.76
2019-03-04T08:38:04.700Z,97987.95
2019-03-04T08:41:08.995Z,97981.91
2019-03-04T08:44:13.218Z,97967.02
2019-03-04T08:47:17.791Z,97953.05
2019-03-04T08:50:22.063Z,97945.73
2019-03-04T08:53:26.338Z,97946.28
2019-03-04T08:56:30.556Z,97952.48
2019-03-04T08:59:34.743Z,97962.48
2019-03-04T09:02:38.994Z,97974.63
2019-03-04T09:05:43.225Z,97984.05
2019-03-04T09:08:47.376Z,97989.75
2019-03-04T09:11:51.496Z,97966.84
2019-03-04T09:14:55.783Z,97980.30
2019-03-04T09:18:00.001Z,97971.36
2019-03-04T09:21:04.203Z,97987.86
2019-03-04T09:24:08.409Z,97980.82
2019-03-04T09:27:12.690Z,97980.94
2019-03-04T09:30:17.531Z,97976.98
2019-03-04T09:33:21.615Z,97978.22
2019-03-04T09:36:25.857Z,97967.77
2019-03-04T09:39:29.966Z,97973.05
2019-03-04T09:42:34.213Z,97955.42
2019-03-04T09:45:39.438Z,97972.69
2019-03-04T09:48:43.740Z,97975.39
2019-03-04T09:51:47.840Z,97951.54
2019-03-04T09:54:52.004Z,97967.85
2019-03-04T09:57:56.229Z,97952.30
2019-03-04T10:01:16.552Z,97936.07
2019-03-04T10:04:42.969Z,97938.53
2019-03-04T10:08:15.597Z,97935.52
2019-03-04T10:11:50.646Z,97945.88
2019-03-04T10:15:29.817Z,97950.43
2019-03-04T10:19:16.669Z,97941.75
2019-03-04T10:22:46.193Z,97953.61
2019-03-04T10:26:22.916Z,97955.70
2019-03-04T10:30:02.240Z,97950.70
2019-03-04T10:33:48.690Z,97950.70
2019-03-04T10:37:42.625Z,97950.91
2019-03-04T10:41:27.239Z,97949.39
2019-03-04T10:45:05.435Z,97943.09
2019-03-04T10:48:09.608Z,97965.80
2019-03-04T10:51:13.803Z,97938.16
2019-03-04T10:54:17.999Z,97946.64
2019-03-04T10:57:22.174Z,97975.66
2019-03-04T11:00:26.349Z,97955.81
2019-03-04T11:03:30.534Z,97959.50
2019-03-04T11:06:34.736Z,97955.17
2019-03-04T11:09:39.057Z,97957.02
2019-03-04T11:16:00.838Z,97968.64
2019-03-04T11:19:05.164Z,97961.96
2019-03-04T11:22:09.548Z,97958.28
2019-03-04T11:25:14.367Z,97948.69
2019-03-04T11:31:49.107Z,97964.92
2019-03-04T11:34:53.349Z,97957.53
2019-03-04T11:37:57.605Z,97965.61
2019-03-04T11:51:37.751Z,97980.85
2019-03-04T11:54:42.137Z,97977.53
2019-03-04T11:57:46.424Z,97979.63
2019-03-04T12:10:41.637Z,97993.70
2019-03-04T12:49:55.925Z,97969.84
2019-03-04T12:53:00.428Z,97991.54
